sensor_id;sensor_type;location;lat;lon;timestamp;pressure;altitude;pressure_sealevel;temperature;humidity
40920;BME280;26652;50.280;19.026;2022-09-17T00:01:18;97368.19;;;13.20;92.51
40920;BME280;26652;50.280;19.026;2022-09-17T00:03:24;97364.13;;;13.12;92.29
40920;BME280;26652;50.280;19.026;2022-09-17T00:05:35;97372.06;;;13.22;92.16
40920;BME280;26652;50.280;19.026;2022-09-17T00:07:41;97363.84;;;13.32;90.91
40920;BME280;26652;50.280;19.026;2022-09-17T00:10:00;97357.66;;;13.39;90.02
40920;BME280;26652;50.280;19.026;2022-09-17T00:12:13;97372.09;;;13.34;89.74
40920;BME280;26652;50.280;19.026;2022-09-17T00:14:28;97356.75;;;13.22;89.99
40920;BME280;26652;50.280;19.026;2022-09-17T00:16:45;97362.91;;;13.15;90.24
40920;BME280;26652;50.280;19.026;2022-09-17T00:18:58;97367.25;;;13.14;90.61
40920;BME280;26652;50.280;19.026;2022-09-17T00:21:03;97373.13;;;13.03;91.35
40920;BME280;26652;50.280;19.026;2022-09-17T00:23:14;97372.56;;;13.01;92.28
40920;BME280;26652;50.280;19.026;2022-09-17T00:25:28;97364.84;;;13.19;91.11
40920;BME280;26652;50.280;19.026;2022-09-17T00:27:53;97361.50;;;13.19;90.79
40920;BME280;26652;50.280;19.026;2022-09-17T00:30:05;97364.09;;;13.30;90.03
40920;BME280;26652;50.280;19.026;2022-09-17T00:32:19;97367.19;;;13.21;90.32
40920;BME280;26652;50.280;19.026;2022-09-17T00:34:28;97362.63;;;13.23;90.28
40920;BME280;26652;50.280;19.026;2022-09-17T00:36:37;97361.25;;;13.08;92.00
40920;BME280;26652;50.280;19.026;2022-09-17T00:38:58;97367.44;;;13.01;92.52
40920;BME280;26652;50.280;19.026;2022-09-17T00:41:06;97364.63;;;12.91;93.25
40920;BME280;26652;50.280;19.026;2022-09-17T00:43:12;97365.88;;;13.00;92.32
40920;BME280;26652;50.280;19.026;2022-09-17T00:45:36;97362.75;;;12.86;92.82
40920;BME280;26652;50.280;19.026;2022-09-17T00:48:02;97370.87;;;12.65;94.33
40920;BME280;26652;50.280;19.026;2022-09-17T00:50:20;97364.47;;;12.74;95.27
40920;BME280;26652;50.280;19.026;2022-09-17T00:52:52;97365.09;;;12.58;94.78
40920;BME280;26652;50.280;19.026;2022-09-17T00:55:35;97367.06;;;12.44;96.93
40920;BME280;26652;50.280;19.026;2022-09-17T00:58:00;97362.19;;;12.54;96.42
40920;BME280;26652;50.280;19.026;2022-09-17T01:00:30;97366.38;;;12.49;97.14
40920;BME280;26652;50.280;19.026;2022-09-17T01:02:39;97364.75;;;12.54;96.35
40920;BME280;26652;50.280;19.026;2022-09-17T01:04:49;97366.50;;;12.54;96.31
40920;BME280;26652;50.280;19.026;2022-09-17T01:07:22;97367.06;;;12.56;96.25
40920;BME280;26652;50.280;19.026;2022-09-17T01:10:18;97358.28;;;12.52;95.65
40920;BME280;26652;50.280;19.026;2022-09-17T01:12:45;97354.84;;;12.46;93.80
40920;BME280;26652;50.280;19.026;2022-09-17T01:18:43;97357.00;;;12.61;93.57
40920;BME280;26652;50.280;19.026;2022-09-17T01:30:30;97354.78;;;12.64;92.31
40920;BME280;26652;50.280;19.026;2022-09-17T01:32:57;97358.13;;;12.65;91.30
40920;BME280;26652;50.280;19.026;2022-09-17T01:35:39;97357.66;;;12.56;91.72
40920;BME280;26652;50.280;19.026;2022-09-17T01:38:30;97355.00;;;12.63;90.87
40920;BME280;26652;50.280;19.026;2022-09-17T01:41:18;97354.06;;;12.75;90.79
40920;BME280;26652;50.280;19.026;2022-09-17T01:46:13;97348.50;;;12.19;93.60
40920;BME280;26652;50.280;19.026;2022-09-17T01:48:37;97353.25;;;12.15;94.45
40920;BME280;26652;50.280;19.026;2022-09-17T01:51:08;97351.06;;;12.00;95.08
40920;BME280;26652;50.280;19.026;2022-09-17T01:53:18;97357.59;;;12.15;94.92
40920;BME280;26652;50.280;19.026;2022-09-17T01:55:30;97351.56;;;12.09;95.18
40920;BME280;26652;50.280;19.026;2022-09-17T01:57:50;97352.19;;;12.04;95.26
40920;BME280;26652;50.280;19.026;2022-09-17T02:00:06;97353.81;;;12.35;92.99
40920;BME280;26652;50.280;19.026;2022-09-17T02:02:19;97358.44;;;12.27;93.98
40920;BME280;26652;50.280;19.026;2022-09-17T02:04:46;97351.19;;;12.24;93.57
40920;BME280;26652;50.280;19.026;2022-09-17T02:06:58;97351.56;;;12.27;93.15
40920;BME280;26652;50.280;19.026;2022-09-17T02:09:20;97356.00;;;12.32;92.60
40920;BME280;26652;50.280;19.026;2022-09-17T02:11:36;97354.81;;;12.16;92.27
40920;BME280;26652;50.280;19.026;2022-09-17T02:13:58;97352.75;;;12.25;92.25
40920;BME280;26652;50.280;19.026;2022-09-17T02:16:32;97348.94;;;11.97;93.27
40920;BME280;26652;50.280;19.026;2022-09-17T02:19:35;97357.94;;;12.18;92.59
40920;BME280;26652;50.280;19.026;2022-09-17T02:21:27;97356.31;;;12.24;92.20
40920;BME280;26652;50.280;19.026;2022-09-17T02:23:51;97351.41;;;12.22;92.03
40920;BME280;26652;50.280;19.026;2022-09-17T02:26:14;97355.94;;;12.20;92.33
40920;BME280;26652;50.280;19.026;2022-09-17T02:30:44;97360.06;;;12.21;94.59
40920;BME280;26652;50.280;19.026;2022-09-17T02:32:57;97369.28;;;12.22;94.84
40920;BME280;26652;50.280;19.026;2022-09-17T02:35:06;97368.41;;;12.28;93.76
40920;BME280;26652;50.280;19.026;2022-09-17T02:37:13;97372.47;;;12.18;93.69
40920;BME280;26652;50.280;19.026;2022-09-17T02:39:28;97365.72;;;12.23;93.43
40920;BME280;26652;50.280;19.026;2022-09-17T02:41:45;97363.37;;;12.22;93.13
40920;BME280;26652;50.280;19.026;2022-09-17T02:44:06;97366.94;;;12.21;92.55
40920;BME280;26652;50.280;19.026;2022-09-17T02:46:56;97362.69;;;12.15;92.80
40920;BME280;26652;50.280;19.026;2022-09-17T02:49:23;97370.69;;;12.18;92.76
40920;BME280;26652;50.280;19.026;2022-09-17T02:59:37;97360.56;;;12.11;93.03
40920;BME280;26652;50.280;19.026;2022-09-17T03:02:19;97356.37;;;12.17;92.09
40920;BME280;26652;50.280;19.026;2022-09-17T03:04:41;97368.22;;;12.11;92.75
40920;BME280;26652;50.280;19.026;2022-09-17T03:07:08;97367.94;;;12.20;91.99
40920;BME280;26652;50.280;19.026;2022-09-17T03:09:38;97365.09;;;12.28;92.16
40920;BME280;26652;50.280;19.026;2022-09-17T03:11:54;97369.84;;;12.24;91.93
40920;BME280;26652;50.280;19.026;2022-09-17T03:14:13;97364.72;;;12.24;92.24
40920;BME280;26652;50.280;19.026;2022-09-17T03:16:47;97355.41;;;12.00;92.63
40920;BME280;26652;50.280;19.026;2022-09-17T03:19:05;97359.56;;;11.94;93.45
40920;BME280;26652;50.280;19.026;2022-09-17T03:21:17;97347.75;;;12.00;93.16
40920;BME280;26652;50.280;19.026;2022-09-17T03:23:41;97353.75;;;12.05;92.57
40920;BME280;26652;50.280;19.026;2022-09-17T03:26:07;97355.81;;;11.97;92.61
40920;BME280;26652;50.280;19.026;2022-09-17T03:28:30;97359.06;;;12.04;92.97
40920;BME280;26652;50.280;19.026;2022-09-17T03:30:52;97348.03;;;11.92;93.95
40920;BME280;26652;50.280;19.026;2022-09-17T03:33:15;97355.53;;;11.87;93.94
40920;BME280;26652;50.280;19.026;2022-09-17T03:35:44;97339.88;;;11.83;93.66
40920;BME280;26652;50.280;19.026;2022-09-17T03:38:13;97337.97;;;11.78;94.14
40920;BME280;26652;50.280;19.026;2022-09-17T03:40:22;97337.28;;;11.65;94.75
40920;BME280;26652;50.280;19.026;2022-09-17T03:42:38;97335.00;;;11.57;94.96
40920;BME280;26652;50.280;19.026;2022-09-17T03:45:01;97331.16;;;11.47;95.55
40920;BME280;26652;50.280;19.026;2022-09-17T03:47:37;97329.19;;;11.31;96.60
40920;BME280;26652;50.280;19.026;2022-09-17T03:49:49;97329.75;;;11.33;96.62
40920;BME280;26652;50.280;19.026;2022-09-17T03:52:02;97328.81;;;11.28;96.92
40920;BME280;26652;50.280;19.026;2022-09-17T03:54:23;97322.78;;;11.22;97.30
40920;BME280;26652;50.280;19.026;2022-09-17T03:56:56;97319.09;;;11.18;97.33
40920;BME280;26652;50.280;19.026;2022-09-17T03:59:08;97316.41;;;11.13;98.06
40920;BME280;26652;50.280;19.026;2022-09-17T04:01:19;97322.47;;;11.12;98.17
40920;BME280;26652;50.280;19.026;2022-09-17T04:03:48;97312.28;;;11.12;98.20
40920;BME280;26652;50.280;19.026;2022-09-17T04:06:10;97320.19;;;11.04;98.77
40920;BME280;26652;50.280;19.026;2022-09-17T04:08:48;97314.72;;;11.00;98.87
40920;BME280;26652;50.280;19.026;2022-09-17T04:10:57;97314.72;;;11.00;99.42
40920;BME280;26652;50.280;19.026;2022-09-17T04:13:09;97311.97;;;11.02;99.17
40920;BME280;26652;50.280;19.026;2022-09-17T04:15:29;97308.59;;;11.08;98.97
40920;BME280;26652;50.280;19.026;2022-09-17T04:18:01;97317.91;;;11.21;99.33
40920;BME280;26652;50.280;19.026;2022-09-17T04:20:23;97319.63;;;11.27;97.66
40920;BME280;26652;50.280;19.026;2022-09-17T04:22:33;97319.03;;;11.25;97.37
40920;BME280;26652;50.280;19.026;2022-09-17T04:25:05;97322.22;;;10.95;99.79
40920;BME280;26652;50.280;19.026;2022-09-17T04:27:15;97311.31;;;11.13;99.61
40920;BME280;26652;50.280;19.026;2022-09-17T04:29:27;97314.06;;;11.11;98.82
40920;BME280;26652;50.280;19.026;2022-09-17T04:31:55;97313.06;;;11.12;98.61
40920;BME280;26652;50.280;19.026;2022-09-17T04:34:24;97306.22;;;11.13;98.25
40920;BME280;26652;50.280;19.026;2022-09-17T04:36:46;97291.72;;;11.13;98.14
40920;BME280;26652;50.280;19.026;2022-09-17T04:39:28;97296.09;;;11.06;98.84
40920;BME280;26652;50.280;19.026;2022-09-17T04:41:40;97299.66;;;10.99;99.23
40920;BME280;26652;50.280;19.026;2022-09-17T04:43:52;97296.72;;;11.02;99.23
40920;BME280;26652;50.280;19.026;2022-09-17T04:46:22;97287.78;;;10.93;100.00
40920;BME280;26652;50.280;19.026;2022-09-17T04:48:36;97309.19;;;11.10;99.65
40920;BME280;26652;50.280;19.026;2022-09-17T04:50:48;97310.16;;;11.09;99.27
40920;BME280;26652;50.280;19.026;2022-09-17T04:53:24;97302.87;;;11.12;99.03
40920;BME280;26652;50.280;19.026;2022-09-17T04:55:36;97295.50;;;11.04;99.04
40920;BME280;26652;50.280;19.026;2022-09-17T04:58:00;97301.06;;;11.20;99.00
40920;BME280;26652;50.280;19.026;2022-09-17T05:00:30;97295.47;;;11.11;99.01
40920;BME280;26652;50.280;19.026;2022-09-17T05:02:53;97298.06;;;11.04;99.63
40920;BME280;26652;50.280;19.026;2022-09-17T05:05:13;97295.16;;;11.01;99.83
40920;BME280;26652;50.280;19.026;2022-09-17T05:07:38;97306.69;;;11.03;100.00
40920;BME280;26652;50.280;19.026;2022-09-17T05:10:08;97314.56;;;10.95;100.00
40920;BME280;26652;50.280;19.026;2022-09-17T05:12:23;97323.56;;;10.98;100.00
40920;BME280;26652;50.280;19.026;2022-09-17T05:14:35;97324.34;;;10.98;100.00
40920;BME280;26652;50.280;19.026;2022-09-17T05:17:11;97323.56;;;10.98;100.00
40920;BME280;26652;50.280;19.026;2022-09-17T05:19:22;97323.34;;;10.99;100.00
40920;BME280;26652;50.280;19.026;2022-09-17T05:21:31;97327.47;;;11.00;100.00
40920;BME280;26652;50.280;19.026;2022-09-17T05:24:03;97326.88;;;10.98;100.00
40920;BME280;26652;50.280;19.026;2022-09-17T05:26:15;97322.16;;;11.02;100.00
40920;BME280;26652;50.280;19.026;2022-09-17T05:28:27;97324.72;;;11.02;100.00
40920;BME280;26652;50.280;19.026;2022-09-17T05:30:57;97326.78;;;11.11;100.00
40920;BME280;26652;50.280;19.026;2022-09-17T05:33:17;97321.84;;;11.17;100.00
40920;BME280;26652;50.280;19.026;2022-09-17T05:35:59;97309.53;;;11.13;100.00
40920;BME280;26652;50.280;19.026;2022-09-17T05:38:16;97317.97;;;11.14;100.00
40920;BME280;26652;50.280;19.026;2022-09-17T05:40:28;97327.72;;;11.17;100.00
40920;BME280;26652;50.280;19.026;2022-09-17T05:42:39;97320.09;;;11.17;100.00
40920;BME280;26652;50.280;19.026;2022-09-17T05:44:48;97325.66;;;11.32;100.00
40920;BME280;26652;50.280;19.026;2022-09-17T05:47:01;97318.94;;;11.38;100.00
40920;BME280;26652;50.280;19.026;2022-09-17T05:49:13;97322.88;;;11.34;100.00
40920;BME280;26652;50.280;19.026;2022-09-17T05:51:18;97313.13;;;11.31;100.00
40920;BME280;26652;50.280;19.026;2022-09-17T05:53:27;97333.28;;;11.32;100.00
40920;BME280;26652;50.280;19.026;2022-09-17T05:55:41;97335.78;;;11.39;100.00
40920;BME280;26652;50.280;19.026;2022-09-17T05:57:59;97339.59;;;11.48;100.00
40920;BME280;26652;50.280;19.026;2022-09-17T06:00:10;97335.84;;;11.51;100.00
40920;BME280;26652;50.280;19.026;2022-09-17T06:02:23;97339.38;;;11.50;100.00
40920;BME280;26652;50.280;19.026;2022-09-17T06:04:32;97344.47;;;11.50;100.00
40920;BME280;26652;50.280;19.026;2022-09-17T06:06:41;97345.06;;;11.70;100.00
40920;BME280;26652;50.280;19.026;2022-09-17T06:08:52;97342.31;;;11.71;99.25
40920;BME280;26652;50.280;19.026;2022-09-17T06:11:03;97327.69;;;11.85;98.36
40920;BME280;26652;50.280;19.026;2022-09-17T06:13:21;97324.94;;;12.05;98.16
40920;BME280;26652;50.280;19.026;2022-09-17T06:15:32;97328.63;;;12.09;98.42
40920;BME280;26652;50.280;19.026;2022-09-17T06:17:51;97318.25;;;12.22;96.69
40920;BME280;26652;50.280;19.026;2022-09-17T06:20:05;97313.19;;;12.34;94.90
40920;BME280;26652;50.280;19.026;2022-09-17T06:22:18;97306.59;;;12.44;94.45
40920;BME280;26652;50.280;19.026;2022-09-17T06:24:23;97295.16;;;12.47;93.06
40920;BME280;26652;50.280;19.026;2022-09-17T06:26:32;97294.47;;;12.52;93.54
40920;BME280;26652;50.280;19.026;2022-09-17T06:29:01;97297.81;;;12.52;92.72
40920;BME280;26652;50.280;19.026;2022-09-17T06:31:10;97302.34;;;12.38;93.63
40920;BME280;26652;50.280;19.026;2022-09-17T06:33:16;97314.19;;;12.33;93.37
40920;BME280;26652;50.280;19.026;2022-09-17T06:35:28;97325.97;;;12.34;93.22
40920;BME280;26652;50.280;19.026;2022-09-17T06:37:37;97330.63;;;12.37;93.62
40920;BME280;26652;50.280;19.026;2022-09-17T06:39:46;97331.66;;;12.48;93.11
40920;BME280;26652;50.280;19.026;2022-09-17T06:41:57;97331.00;;;12.52;93.26
40920;BME280;26652;50.280;19.026;2022-09-17T06:44:11;97337.78;;;12.47;92.73
40920;BME280;26652;50.280;19.026;2022-09-17T06:46:19;97344.44;;;12.48;92.99
40920;BME280;26652;50.280;19.026;2022-09-17T06:48:29;97344.88;;;12.44;93.69
40920;BME280;26652;50.280;19.026;2022-09-17T06:50:35;97346.44;;;12.57;95.17
40920;BME280;26652;50.280;19.026;2022-09-17T06:52:54;97332.28;;;12.73;93.85
40920;BME280;26652;50.280;19.026;2022-09-17T06:55:11;97343.31;;;12.85;92.30
40920;BME280;26652;50.280;19.026;2022-09-17T06:57:20;97341.19;;;12.82;91.25
40920;BME280;26652;50.280;19.026;2022-09-17T06:59:32;97334.00;;;12.91;92.28
40920;BME280;26652;50.280;19.026;2022-09-17T07:01:50;97341.31;;;12.87;90.68
40920;BME280;26652;50.280;19.026;2022-09-17T07:04:09;97342.69;;;13.01;91.60
40920;BME280;26652;50.280;19.026;2022-09-17T07:06:20;97329.69;;;13.03;90.41
40920;BME280;26652;50.280;19.026;2022-09-17T07:08:35;97346.34;;;13.05;90.52
40920;BME280;26652;50.280;19.026;2022-09-17T07:10:46;97340.13;;;13.01;90.13
40920;BME280;26652;50.280;19.026;2022-09-17T07:12:54;97343.69;;;13.00;90.31
40920;BME280;26652;50.280;19.026;2022-09-17T07:15:08;97350.50;;;13.18;91.08
40920;BME280;26652;50.280;19.026;2022-09-17T07:17:16;97346.53;;;13.34;90.02
40920;BME280;26652;50.280;19.026;2022-09-17T07:19:26;97349.37;;;13.14;89.43
40920;BME280;26652;50.280;19.026;2022-09-17T07:21:39;97350.50;;;13.18;89.37
40920;BME280;26652;50.280;19.026;2022-09-17T07:23:54;97348.72;;;13.19;88.88
40920;BME280;26652;50.280;19.026;2022-09-17T07:26:06;97348.28;;;13.22;89.14
40920;BME280;26652;50.280;19.026;2022-09-17T07:28:26;97355.56;;;13.06;88.20
40920;BME280;26652;50.280;19.026;2022-09-17T07:30:51;97361.81;;;13.10;88.66
40920;BME280;26652;50.280;19.026;2022-09-17T07:33:11;97356.53;;;13.35;89.04
40920;BME280;26652;50.280;19.026;2022-09-17T07:35:51;97360.72;;;13.53;88.35
40920;BME280;26652;50.280;19.026;2022-09-17T07:38:19;97358.84;;;13.60;88.78
40920;BME280;26652;50.280;19.026;2022-09-17T07:40:38;97369.19;;;13.65;86.41
40920;BME280;26652;50.280;19.026;2022-09-17T07:42:51;97372.19;;;13.62;84.99
40920;BME280;26652;50.280;19.026;2022-09-17T07:45:39;97376.19;;;13.70;86.20
40920;BME280;26652;50.280;19.026;2022-09-17T07:47:51;97376.41;;;13.68;83.96
40920;BME280;26652;50.280;19.026;2022-09-17T07:50:09;97377.19;;;13.81;83.42
40920;BME280;26652;50.280;19.026;2022-09-17T07:52:29;97382.09;;;13.47;83.21
40920;BME280;26652;50.280;19.026;2022-09-17T07:55:03;97389.22;;;13.45;83.26
40920;BME280;26652;50.280;19.026;2022-09-17T07:57:13;97380.53;;;13.46;83.63
40920;BME280;26652;50.280;19.026;2022-09-17T07:59:35;97381.28;;;13.58;83.83
40920;BME280;26652;50.280;19.026;2022-09-17T08:02:02;97376.19;;;13.70;83.30
40920;BME280;26652;50.280;19.026;2022-09-17T08:04:29;97374.62;;;13.69;81.38
40920;BME280;26652;50.280;19.026;2022-09-17T08:06:58;97357.59;;;13.86;82.60
40920;BME280;26652;50.280;19.026;2022-09-17T08:09:13;97357.00;;;14.07;82.32
40920;BME280;26652;50.280;19.026;2022-09-17T08:11:27;97360.00;;;14.16;81.32
40920;BME280;26652;50.280;19.026;2022-09-17T08:13:47;97361.66;;;14.22;81.15
40920;BME280;26652;50.280;19.026;2022-09-17T08:15:58;97368.97;;;14.30;78.60
40920;BME280;26652;50.280;19.026;2022-09-17T08:18:08;97367.25;;;14.07;77.18
40920;BME280;26652;50.280;19.026;2022-09-17T08:20:23;97367.50;;;13.83;76.15
40920;BME280;26652;50.280;19.026;2022-09-17T08:22:32;97357.59;;;13.86;77.56
40920;BME280;26652;50.280;19.026;2022-09-17T08:24:41;97358.28;;;13.82;76.05
40920;BME280;26652;50.280;19.026;2022-09-17T08:26:58;97364.06;;;13.89;76.96
40920;BME280;26652;50.280;19.026;2022-09-17T08:29:07;97352.78;;;14.01;76.26
40920;BME280;26652;50.280;19.026;2022-09-17T08:31:17;97352.91;;;14.06;71.39
40920;BME280;26652;50.280;19.026;2022-09-17T08:33:33;97352.78;;;14.13;70.84
40920;BME280;26652;50.280;19.026;2022-09-17T08:35:39;97359.53;;;14.19;71.34
40920;BME280;26652;50.280;19.026;2022-09-17T08:37:48;97365.63;;;14.30;70.18
40920;BME280;26652;50.280;19.026;2022-09-17T08:40:17;97363.53;;;14.27;70.25
40920;BME280;26652;50.280;19.026;2022-09-17T08:42:38;97374.97;;;14.36;71.31
40920;BME280;26652;50.280;19.026;2022-09-17T08:44:47;97376.53;;;14.37;70.58
40920;BME280;26652;50.280;19.026;2022-09-17T08:47:30;97373.88;;;14.32;69.84
40920;BME280;26652;50.280;19.026;2022-09-17T08:49:46;97374.75;;;14.49;69.45
40920;BME280;26652;50.280;19.026;2022-09-17T08:52:20;97362.25;;;14.53;69.36
40920;BME280;26652;50.280;19.026;2022-09-17T08:57:16;97341.22;;;14.51;70.45
40920;BME280;26652;50.280;19.026;2022-09-17T08:59:36;97338.03;;;14.44;69.27
40920;BME280;26652;50.280;19.026;2022-09-17T09:05:01;97338.56;;;14.46;70.01
40920;BME280;26652;50.280;19.026;2022-09-17T09:07:24;97341.34;;;14.44;70.61
40920;BME280;26652;50.280;19.026;2022-09-17T09:09:38;97356.03;;;14.37;70.26
40920;BME280;26652;50.280;19.026;2022-09-17T09:11:46;97360.19;;;14.26;70.76
40920;BME280;26652;50.280;19.026;2022-09-17T09:14:19;97358.53;;;14.20;70.05
40920;BME280;26652;50.280;19.026;2022-09-17T09:16:31;97368.06;;;14.36;71.28
40920;BME280;26652;50.280;19.026;2022-09-17T09:18:40;97375.19;;;14.34;72.44
40920;BME280;26652;50.280;19.026;2022-09-17T09:21:11;97370.41;;;14.38;74.22
40920;BME280;26652;50.280;19.026;2022-09-17T09:23:33;97373.31;;;14.42;70.69
40920;BME280;26652;50.280;19.026;2022-09-17T09:26:07;97382.28;;;14.56;71.16
40920;BME280;26652;50.280;19.026;2022-09-17T09:28:34;97365.97;;;14.62;72.09
40920;BME280;26652;50.280;19.026;2022-09-17T09:33:38;97391.69;;;14.67;70.48
40920;BME280;26652;50.280;19.026;2022-09-17T09:35:45;97387.88;;;14.69;70.84
40920;BME280;26652;50.280;19.026;2022-09-17T09:40:49;97390.31;;;14.76;73.81
40920;BME280;26652;50.280;19.026;2022-09-17T09:43:02;97385.28;;;14.81;71.47
40920;BME280;26652;50.280;19.026;2022-09-17T09:45:16;97369.03;;;14.76;71.81
40920;BME280;26652;50.280;19.026;2022-09-17T09:50:19;97387.41;;;14.72;71.79
40920;BME280;26652;50.280;19.026;2022-09-17T09:55:29;97382.84;;;14.75;70.76
40920;BME280;26652;50.280;19.026;2022-09-17T09:58:12;97387.91;;;14.86;72.19
40920;BME280;26652;50.280;19.026;2022-09-17T10:00:50;97387.88;;;14.69;70.30
40920;BME280;26652;50.280;19.026;2022-09-17T10:03:28;97393.03;;;14.58;72.58
40920;BME280;26652;50.280;19.026;2022-09-17T10:06:01;97383.59;;;14.58;73.93
40920;BME280;26652;50.280;19.026;2022-09-17T10:08:13;97385.47;;;14.63;72.84
40920;BME280;26652;50.280;19.026;2022-09-17T10:13:20;97388.94;;;14.85;72.07
40920;BME280;26652;50.280;19.026;2022-09-17T10:15:29;97391.56;;;14.90;72.63
40920;BME280;26652;50.280;19.026;2022-09-17T10:18:23;97384.44;;;14.92;73.19
40920;BME280;26652;50.280;19.026;2022-09-17T10:20:58;97391.28;;;15.03;71.90
40920;BME280;26652;50.280;19.026;2022-09-17T10:23:06;97387.94;;;15.03;70.95
40920;BME280;26652;50.280;19.026;2022-09-17T10:25:42;97387.94;;;15.03;72.57
40920;BME280;26652;50.280;19.026;2022-09-17T10:27:48;97390.44;;;15.15;72.53
40920;BME280;26652;50.280;19.026;2022-09-17T10:30:18;97394.25;;;15.12;72.15
40920;BME280;26652;50.280;19.026;2022-09-17T10:35:25;97403.47;;;14.96;71.99
40920;BME280;26652;50.280;19.026;2022-09-17T10:37:49;97398.44;;;15.01;71.76
40920;BME280;26652;50.280;19.026;2022-09-17T10:42:49;97403.41;;;15.08;72.39
40920;BME280;26652;50.280;19.026;2022-09-17T10:45:25;97383.91;;;15.07;72.36
40920;BME280;26652;50.280;19.026;2022-09-17T10:47:36;97388.44;;;15.17;72.63
40920;BME280;26652;50.280;19.026;2022-09-17T10:50:06;97402.72;;;15.13;71.31
40920;BME280;26652;50.280;19.026;2022-09-17T10:57:20;97410.81;;;15.21;71.37
40920;BME280;26652;50.280;19.026;2022-09-17T11:00:10;97409.94;;;15.16;71.10
40920;BME280;26652;50.280;19.026;2022-09-17T11:08:24;97409.63;;;15.12;72.59
40920;BME280;26652;50.280;19.026;2022-09-17T11:13:42;97409.69;;;15.00;72.73
40920;BME280;26652;50.280;19.026;2022-09-17T11:16:21;97409.13;;;14.98;72.37
40920;BME280;26652;50.280;19.026;2022-09-17T11:27:00;97431.56;;;14.91;74.15
40920;BME280;26652;50.280;19.026;2022-09-17T11:32:38;97430.25;;;14.89;74.81
40920;BME280;26652;50.280;19.026;2022-09-17T11:37:41;97425.72;;;14.79;76.29
40920;BME280;26652;50.280;19.026;2022-09-17T11:39:59;97432.94;;;14.82;77.80
40920;BME280;26652;50.280;19.026;2022-09-17T11:42:42;97419.75;;;14.62;80.19
40920;BME280;26652;50.280;19.026;2022-09-17T11:44:56;97419.19;;;14.60;83.30
40920;BME280;26652;50.280;19.026;2022-09-17T11:47:14;97414.31;;;14.58;85.28
40920;BME280;26652;50.280;19.026;2022-09-17T11:50:15;97417.34;;;14.55;86.62
40920;BME280;26652;50.280;19.026;2022-09-17T11:52:41;97419.66;;;14.57;86.66
40920;BME280;26652;50.280;19.026;2022-09-17T11:55:08;97412.28;;;14.60;86.25
40920;BME280;26652;50.280;19.026;2022-09-17T11:57:30;97402.28;;;14.59;86.44
40920;BME280;26652;50.280;19.026;2022-09-17T12:02:22;97395.16;;;14.61;87.41
40920;BME280;26652;50.280;19.026;2022-09-17T12:09:36;97391.53;;;14.73;87.71
40920;BME280;26652;50.280;19.026;2022-09-17T12:12:17;97388.19;;;14.73;86.85
40920;BME280;26652;50.280;19.026;2022-09-17T12:14:42;97387.00;;;14.64;85.03
40920;BME280;26652;50.280;19.026;2022-09-17T12:16:58;97386.63;;;14.55;83.47
40920;BME280;26652;50.280;19.026;2022-09-17T12:19:24;97378.16;;;14.55;84.02
40920;BME280;26652;50.280;19.026;2022-09-17T12:21:44;97371.56;;;14.59;85.98
40920;BME280;26652;50.280;19.026;2022-09-17T12:24:10;97364.28;;;14.67;84.75
40920;BME280;26652;50.280;19.026;2022-09-17T12:26:43;97373.28;;;14.70;85.22
40920;BME280;26652;50.280;19.026;2022-09-17T12:29:22;97360.28;;;14.88;84.80
40920;BME280;26652;50.280;19.026;2022-09-17T12:34:53;97347.56;;;15.10;83.24
40920;BME280;26652;50.280;19.026;2022-09-17T12:37:16;97348.66;;;15.14;80.67
40920;BME280;26652;50.280;19.026;2022-09-17T12:39:46;97347.09;;;15.30;81.08
40920;BME280;26652;50.280;19.026;2022-09-17T12:42:23;97340.97;;;15.31;78.62
40920;BME280;26652;50.280;19.026;2022-09-17T12:50:13;97330.38;;;15.44;77.82
40920;BME280;26652;50.280;19.026;2022-09-17T12:54:59;97322.78;;;15.32;76.26
40920;BME280;26652;50.280;19.026;2022-09-17T13:00:05;97327.91;;;15.32;73.66
40920;BME280;26652;50.280;19.026;2022-09-17T13:02:35;97335.81;;;15.48;75.19
40920;BME280;26652;50.280;19.026;2022-09-17T13:04:59;97334.97;;;15.59;76.50
40920;BME280;26652;50.280;19.026;2022-09-17T13:09:58;97341.78;;;15.70;73.16
40920;BME280;26652;50.280;19.026;2022-09-17T13:12:23;97330.72;;;15.69;72.54
40920;BME280;26652;50.280;19.026;2022-09-17T13:17:34;97318.84;;;15.63;73.64
40920;BME280;26652;50.280;19.026;2022-09-17T13:22:21;97311.75;;;15.70;72.49
40920;BME280;26652;50.280;19.026;2022-09-17T13:24:30;97317.50;;;15.78;72.34
40920;BME280;26652;50.280;19.026;2022-09-17T13:26:38;97319.81;;;15.79;71.49
40920;BME280;26652;50.280;19.026;2022-09-17T13:28:51;97317.56;;;15.83;70.84
40920;BME280;26652;50.280;19.026;2022-09-17T13:31:08;97313.69;;;15.80;71.23
40920;BME280;26652;50.280;19.026;2022-09-17T13:33:56;97322.75;;;15.88;71.25
40920;BME280;26652;50.280;19.026;2022-09-17T13:38:42;97323.53;;;16.10;71.80
40920;BME280;26652;50.280;19.026;2022-09-17T13:41:29;97336.47;;;16.20;70.12
40920;BME280;26652;50.280;19.026;2022-09-17T13:43:44;97329.47;;;16.38;69.57
40920;BME280;26652;50.280;19.026;2022-09-17T13:46:04;97333.06;;;16.37;69.58
40920;BME280;26652;50.280;19.026;2022-09-17T13:48:23;97330.59;;;16.47;68.24
40920;BME280;26652;50.280;19.026;2022-09-17T13:50:35;97338.78;;;16.44;69.31
40920;BME280;26652;50.280;19.026;2022-09-17T13:52:48;97335.88;;;16.62;67.67
40920;BME280;26652;50.280;19.026;2022-09-17T13:55:07;97342.53;;;16.58;66.83
40920;BME280;26652;50.280;19.026;2022-09-17T13:57:14;97349.50;;;16.35;66.12
40920;BME280;26652;50.280;19.026;2022-09-17T13:59:29;97341.75;;;16.09;67.04
40920;BME280;26652;50.280;19.026;2022-09-17T14:06:50;97289.09;;;16.60;66.17
40920;BME280;26652;50.280;19.026;2022-09-17T14:09:05;97277.22;;;16.54;66.33